CPX361 Details

Departure: Seattle-Tacoma International Airport (KSEA)
Arrival: Miami International Airport (KMIA) at N/A
Route: SEA NORMY J90 MWH DLN DDY BFF SGF MEM MGM SZW PLYER JUULI SSCOT5
Notes:


Current Weather Information
KSEA 250353Z 05011KT 10SM BKN038 21/12 A3002 RMK AO2 SLP170 T02060117
KMIA 250353Z 21004KT 10SM FEW030 FEW250 28/25 A2995 RMK AO2 SLP140 T02830250